HAZ8231 ZYHB-ZSHC
Flight info
| Callsign | HAZ8231 |
|---|---|
| Flight time | 2h 46m |
| Altitude | 34100 |
| Route | DUK07D DUKIR W655 NIMEM W205 NULRA A588 BIDIB A345 DDG DCT BIGBU DCT DONVO A326 IKADI W113 SOSMA W108 MATNU W115 PINOT B221 SUPAR W505 DSH |
| Aircraft | A320/M-SDE3FGHIRWY/LB1 |
Departure
| Time | 2026-04-21 10:03 |
|---|---|
| Airport | Harbin Taiping International Airport (ZYHB) |
Arrival
| Time | 2026-04-21 12:49 |
|---|---|
| Airport | Hangzhou Xiaoshan International Airport (ZSHC) |
| Time | Latitude | Longitude | Altitude | Speed | Heading |
|---|---|---|---|---|---|
| 2026-04-21 09:36 | 45.61675 | 126.23412 | 465 ft | 0 kts | 245° |
| 2026-04-21 09:51 | 45.61680 | 126.23426 | 465 ft | 3 kts | 243° |
| 2026-04-21 09:52 | 45.61690 | 126.23453 | 465 ft | 3 kts | 236° |
| 2026-04-21 09:52 | 45.61703 | 126.23477 | 464 ft | 3 kts | 220° |
| 2026-04-21 09:52 | 45.61720 | 126.23491 | 463 ft | 3 kts | 182° |
| 2026-04-21 09:52 | 45.61732 | 126.23489 | 464 ft | 1 kts | 155° |
| 2026-04-21 09:53 | 45.61734 | 126.23488 | 464 ft | 0 kts | 155° |
| 2026-04-21 09:54 | 45.61733 | 126.23488 | 462 ft | 1 kts | 155° |
| 2026-04-21 09:55 | 45.61698 | 126.23512 | 462 ft | 9 kts | 155° |
| 2026-04-21 09:55 | 45.61628 | 126.23557 | 462 ft | 13 kts | 155° |
| 2026-04-21 09:55 | 45.61566 | 126.23625 | 464 ft | 10 kts | 110° |
| 2026-04-21 09:55 | 45.61607 | 126.23711 | 464 ft | 12 kts | 39° |
| 2026-04-21 09:56 | 45.61668 | 126.23791 | 463 ft | 11 kts | 53° |
| 2026-04-21 09:56 | 45.61659 | 126.23880 | 463 ft | 9 kts | 95° |
| 2026-04-21 09:56 | 45.61729 | 126.23988 | 462 ft | 20 kts | 39° |
| 2026-04-21 09:56 | 45.61839 | 126.24117 | 459 ft | 21 kts | 39° |
| 2026-04-21 09:57 | 45.61960 | 126.24259 | 459 ft | 24 kts | 39° |
| 2026-04-21 09:57 | 45.62090 | 126.24412 | 460 ft | 25 kts | 40° |
| 2026-04-21 09:57 | 45.62225 | 126.24570 | 459 ft | 26 kts | 39° |
| 2026-04-21 09:57 | 45.62365 | 126.24734 | 458 ft | 26 kts | 39° |
| 2026-04-21 09:58 | 45.62510 | 126.24904 | 455 ft | 27 kts | 40° |
| 2026-04-21 09:58 | 45.62658 | 126.25078 | 455 ft | 27 kts | 39° |
| 2026-04-21 09:58 | 45.62805 | 126.25250 | 454 ft | 28 kts | 39° |
| 2026-04-21 09:58 | 45.62954 | 126.25424 | 453 ft | 27 kts | 39° |
| 2026-04-21 09:59 | 45.63102 | 126.25598 | 451 ft | 27 kts | 39° |
| 2026-04-21 09:59 | 45.63251 | 126.25773 | 451 ft | 28 kts | 39° |
| 2026-04-21 09:59 | 45.63400 | 126.25949 | 450 ft | 27 kts | 39° |
| 2026-04-21 09:59 | 45.63541 | 126.26113 | 449 ft | 20 kts | 39° |
| 2026-04-21 10:00 | 45.63598 | 126.26192 | 449 ft | 8 kts | 65° |
| 2026-04-21 10:00 | 45.63581 | 126.26253 | 449 ft | 6 kts | 132° |
| 2026-04-21 10:00 | 45.63533 | 126.26287 | 449 ft | 13 kts | 169° |
| 2026-04-21 10:00 | 45.63467 | 126.26296 | 449 ft | 12 kts | 178° |
| 2026-04-21 10:01 | 45.63408 | 126.26267 | 450 ft | 5 kts | 218° |
| 2026-04-21 10:01 | 45.63406 | 126.26264 | 450 ft | 0 kts | 218° |
| 2026-04-21 10:02 | 45.63403 | 126.26261 | 450 ft | 4 kts | 218° |
| 2026-04-21 10:02 | 45.63336 | 126.26183 | 449 ft | 42 kts | 219° |
| 2026-04-21 10:03 | 45.62923 | 126.25699 | 451 ft | 108 kts | 219° |
| 2026-04-21 10:03 | 45.62202 | 126.24853 | 457 ft | 158 kts | 219° |
| 2026-04-21 10:03 | 45.61270 | 126.23779 | 760 ft | 177 kts | 222° |
| 2026-04-21 10:03 | 45.60306 | 126.22662 | 1396 ft | 178 kts | 226° |
| 2026-04-21 10:04 | 45.59354 | 126.21549 | 2165 ft | 176 kts | 227° |
| 2026-04-21 10:04 | 45.58052 | 126.20009 | 2639 ft | 196 kts | 227° |
| 2026-04-21 10:04 | 45.57318 | 126.19135 | 2791 ft | 210 kts | 227° |
| 2026-04-21 10:04 | 45.56135 | 126.17731 | 3070 ft | 233 kts | 226° |
| 2026-04-21 10:05 | 45.54833 | 126.16195 | 3569 ft | 249 kts | 226° |
| 2026-04-21 10:05 | 45.53494 | 126.14635 | 4369 ft | 254 kts | 226° |
| 2026-04-21 10:05 | 45.52112 | 126.13032 | 5199 ft | 257 kts | 225° |
| 2026-04-21 10:05 | 45.50717 | 126.11411 | 6045 ft | 260 kts | 225° |
| 2026-04-21 10:06 | 45.49308 | 126.09777 | 6840 ft | 262 kts | 225° |
| 2026-04-21 10:06 | 45.47885 | 126.08128 | 7651 ft | 265 kts | 225° |
| 2026-04-21 10:06 | 45.46450 | 126.06463 | 8475 ft | 267 kts | 225° |
| 2026-04-21 10:06 | 45.45006 | 126.04782 | 9289 ft | 269 kts | 225° |
| 2026-04-21 10:07 | 45.43544 | 126.03087 | 10045 ft | 272 kts | 226° |
| 2026-04-21 10:07 | 45.42040 | 126.01339 | 10407 ft | 290 kts | 226° |
| 2026-04-21 10:07 | 45.40420 | 125.99444 | 10558 ft | 313 kts | 226° |
| 2026-04-21 10:07 | 45.38608 | 125.97518 | 10691 ft | 339 kts | 218° |
| 2026-04-21 10:08 | 45.36405 | 125.96003 | 10973 ft | 363 kts | 206° |
| 2026-04-21 10:08 | 45.33913 | 125.95119 | 11521 ft | 377 kts | 196° |
| 2026-04-21 10:08 | 45.31247 | 125.94914 | 12110 ft | 389 kts | 188° |
| 2026-04-21 10:08 | 45.28526 | 125.94890 | 12732 ft | 393 kts | 189° |
| 2026-04-21 10:09 | 45.25784 | 125.94861 | 13340 ft | 396 kts | 190° |
| 2026-04-21 10:09 | 45.23019 | 125.94830 | 13896 ft | 399 kts | 190° |
| 2026-04-21 10:09 | 45.20224 | 125.94799 | 14421 ft | 403 kts | 190° |
| 2026-04-21 10:09 | 45.17409 | 125.94770 | 14928 ft | 406 kts | 190° |
| 2026-04-21 10:10 | 45.14575 | 125.94740 | 15439 ft | 409 kts | 190° |
| 2026-04-21 10:10 | 45.11719 | 125.94713 | 15950 ft | 412 kts | 190° |
| 2026-04-21 10:10 | 45.08844 | 125.94688 | 16424 ft | 415 kts | 190° |
| 2026-04-21 10:10 | 45.05950 | 125.94662 | 16937 ft | 417 kts | 190° |
| 2026-04-21 10:11 | 45.03035 | 125.94640 | 17432 ft | 420 kts | 190° |
| 2026-04-21 10:11 | 45.00103 | 125.94619 | 17912 ft | 422 kts | 190° |
| 2026-04-21 10:11 | 44.97159 | 125.94594 | 18374 ft | 424 kts | 190° |
| 2026-04-21 10:11 | 44.94243 | 125.94565 | 18806 ft | 426 kts | 190° |
| 2026-04-21 10:12 | 44.91273 | 125.94536 | 19223 ft | 428 kts | 190° |
| 2026-04-21 10:12 | 44.88288 | 125.94507 | 19644 ft | 430 kts | 191° |
| 2026-04-21 10:12 | 44.85285 | 125.94477 | 20019 ft | 432 kts | 190° |
| 2026-04-21 10:12 | 44.82269 | 125.94451 | 20431 ft | 435 kts | 190° |
| 2026-04-21 10:13 | 44.79235 | 125.94425 | 20820 ft | 437 kts | 190° |
| 2026-04-21 10:13 | 44.76187 | 125.94397 | 21204 ft | 439 kts | 191° |
| 2026-04-21 10:13 | 44.73163 | 125.94123 | 21565 ft | 432 kts | 198° |
| 2026-04-21 10:13 | 44.70199 | 125.93481 | 21921 ft | 432 kts | 199° |
| 2026-04-21 10:14 | 44.67227 | 125.92824 | 22300 ft | 434 kts | 199° |
| 2026-04-21 10:14 | 44.64235 | 125.92162 | 22651 ft | 436 kts | 199° |
| 2026-04-21 10:14 | 44.61229 | 125.91498 | 22970 ft | 439 kts | 199° |
| 2026-04-21 10:14 | 44.58205 | 125.90830 | 23309 ft | 441 kts | 199° |
| 2026-04-21 10:15 | 44.55167 | 125.90160 | 23592 ft | 443 kts | 199° |
| 2026-04-21 10:15 | 44.52113 | 125.89488 | 23876 ft | 445 kts | 199° |
| 2026-04-21 10:15 | 44.49042 | 125.88819 | 24144 ft | 448 kts | 199° |
| 2026-04-21 10:15 | 44.45958 | 125.88151 | 24409 ft | 450 kts | 199° |
| 2026-04-21 10:16 | 44.42860 | 125.87482 | 24681 ft | 452 kts | 200° |
| 2026-04-21 10:16 | 44.39744 | 125.86806 | 24859 ft | 454 kts | 200° |
| 2026-04-21 10:16 | 44.36612 | 125.86122 | 25107 ft | 456 kts | 200° |
| 2026-04-21 10:16 | 44.33469 | 125.85436 | 25362 ft | 458 kts | 200° |
| 2026-04-21 10:17 | 44.30310 | 125.84745 | 25609 ft | 460 kts | 200° |
| 2026-04-21 10:17 | 44.27145 | 125.84051 | 25879 ft | 462 kts | 200° |
| 2026-04-21 10:17 | 44.23964 | 125.83358 | 26141 ft | 463 kts | 200° |
| 2026-04-21 10:17 | 44.20776 | 125.82668 | 26387 ft | 464 kts | 200° |
| 2026-04-21 10:18 | 44.17590 | 125.81986 | 26735 ft | 463 kts | 200° |
| 2026-04-21 10:18 | 44.14373 | 125.81443 | 27075 ft | 472 kts | 195° |
| 2026-04-21 10:18 | 44.11044 | 125.81506 | 27398 ft | 486 kts | 186° |
| 2026-04-21 10:18 | 44.07656 | 125.82277 | 27727 ft | 501 kts | 177° |
| 2026-04-21 10:19 | 44.04293 | 125.83795 | 28034 ft | 514 kts | 169° |
| 2026-04-21 10:19 | 44.00957 | 125.85588 | 28345 ft | 512 kts | 171° |
| 2026-04-21 10:19 | 43.97579 | 125.86924 | 28682 ft | 498 kts | 180° |
| 2026-04-21 10:19 | 43.94203 | 125.87625 | 28937 ft | 484 kts | 189° |
| 2026-04-21 10:20 | 43.90890 | 125.87723 | 29242 ft | 470 kts | 197° |
| 2026-04-21 10:20 | 43.87728 | 125.87292 | 29566 ft | 456 kts | 204° |
| 2026-04-21 10:20 | 43.84557 | 125.86586 | 29880 ft | 455 kts | 204° |
| 2026-04-21 10:20 | 43.81475 | 125.85913 | 30175 ft | 455 kts | 204° |
| 2026-04-21 10:21 | 43.78415 | 125.85068 | 30477 ft | 441 kts | 210° |
| 2026-04-21 10:21 | 43.75563 | 125.83746 | 30740 ft | 424 kts | 218° |
| 2026-04-21 10:21 | 43.72955 | 125.82008 | 31073 ft | 412 kts | 223° |
| 2026-04-21 10:21 | 43.70421 | 125.80178 | 31406 ft | 410 kts | 223° |
| 2026-04-21 10:22 | 43.67895 | 125.78362 | 31725 ft | 409 kts | 223° |
| 2026-04-21 10:22 | 43.65375 | 125.76560 | 32042 ft | 407 kts | 222° |
| 2026-04-21 10:22 | 43.62861 | 125.74769 | 32355 ft | 406 kts | 222° |
| 2026-04-21 10:22 | 43.60354 | 125.72982 | 32667 ft | 405 kts | 222° |
| 2026-04-21 10:23 | 43.57855 | 125.71207 | 32970 ft | 404 kts | 223° |
| 2026-04-21 10:23 | 43.55365 | 125.69442 | 33274 ft | 401 kts | 223° |
| 2026-04-21 10:23 | 43.52889 | 125.67688 | 33638 ft | 399 kts | 223° |
| 2026-04-21 10:23 | 43.50424 | 125.65939 | 33781 ft | 399 kts | 223° |
| 2026-04-21 10:24 | 43.47952 | 125.64182 | 33809 ft | 401 kts | 223° |
| 2026-04-21 10:24 | 43.42983 | 125.60663 | 33815 ft | 402 kts | 223° |
| 2026-04-21 10:25 | 43.38009 | 125.57150 | 33811 ft | 402 kts | 223° |
| 2026-04-21 10:25 | 43.33028 | 125.53642 | 33814 ft | 402 kts | 223° |
| 2026-04-21 10:26 | 43.28079 | 125.50161 | 33859 ft | 403 kts | 223° |
| 2026-04-21 10:26 | 43.25588 | 125.48411 | 34100 ft | 402 kts | 223° |
| 2026-04-21 10:26 | 43.23095 | 125.46660 | 34310 ft | 403 kts | 223° |
| 2026-04-21 10:26 | 43.20603 | 125.44911 | 34522 ft | 402 kts | 223° |
| 2026-04-21 10:27 | 43.18113 | 125.43166 | 34727 ft | 402 kts | 223° |
| 2026-04-21 10:27 | 43.15620 | 125.41424 | 34902 ft | 403 kts | 223° |
| 2026-04-21 10:27 | 43.13122 | 125.39677 | 35063 ft | 403 kts | 223° |
| 2026-04-21 10:27 | 43.10626 | 125.37928 | 35252 ft | 403 kts | 223° |
| 2026-04-21 10:28 | 43.08126 | 125.36176 | 35400 ft | 404 kts | 222° |
| 2026-04-21 10:28 | 43.05623 | 125.34424 | 35556 ft | 404 kts | 222° |
| 2026-04-21 10:28 | 43.03119 | 125.32677 | 35701 ft | 404 kts | 223° |
| 2026-04-21 10:28 | 43.00616 | 125.30944 | 35812 ft | 402 kts | 223° |
| 2026-04-21 10:29 | 42.98124 | 125.29223 | 35822 ft | 401 kts | 223° |
| 2026-04-21 10:29 | 42.93142 | 125.25774 | 35825 ft | 402 kts | 223° |
| 2026-04-21 10:30 | 42.88160 | 125.22314 | 35825 ft | 402 kts | 223° |
| 2026-04-21 10:30 | 42.83187 | 125.18873 | 35828 ft | 400 kts | 223° |
| 2026-04-21 10:31 | 42.78250 | 125.15431 | 35829 ft | 398 kts | 224° |
| 2026-04-21 10:31 | 42.73342 | 125.11959 | 35829 ft | 398 kts | 224° |
| 2026-04-21 10:32 | 42.68427 | 125.08495 | 35793 ft | 397 kts | 224° |
| 2026-04-21 10:32 | 42.63513 | 125.05064 | 35821 ft | 397 kts | 224° |
| 2026-04-21 10:33 | 42.58607 | 125.01639 | 35830 ft | 397 kts | 224° |
| 2026-04-21 10:33 | 42.53699 | 124.98216 | 35831 ft | 396 kts | 224° |
| 2026-04-21 10:34 | 42.48801 | 124.94801 | 35812 ft | 396 kts | 224° |
| 2026-04-21 10:34 | 42.43896 | 124.91401 | 35838 ft | 395 kts | 224° |
| 2026-04-21 10:35 | 42.39004 | 124.88009 | 35849 ft | 395 kts | 224° |
| 2026-04-21 10:35 | 42.34113 | 124.84623 | 35813 ft | 394 kts | 224° |
| 2026-04-21 10:36 | 42.29223 | 124.81235 | 35841 ft | 395 kts | 223° |
| 2026-04-21 10:36 | 42.24329 | 124.77867 | 35866 ft | 395 kts | 223° |
| 2026-04-21 10:37 | 42.19443 | 124.74506 | 35866 ft | 394 kts | 224° |
| 2026-04-21 10:37 | 42.14583 | 124.71164 | 35836 ft | 391 kts | 223° |
| 2026-04-21 10:38 | 42.09748 | 124.67839 | 35858 ft | 390 kts | 223° |
| 2026-04-21 10:38 | 42.04914 | 124.64529 | 35869 ft | 390 kts | 223° |
| 2026-04-21 10:39 | 42.00085 | 124.61233 | 35837 ft | 387 kts | 223° |
| 2026-04-21 10:39 | 41.95363 | 124.57915 | 35853 ft | 382 kts | 225° |
| 2026-04-21 10:40 | 41.90770 | 124.54375 | 35862 ft | 380 kts | 226° |
| 2026-04-21 10:40 | 41.86201 | 124.50799 | 35877 ft | 381 kts | 226° |
| 2026-04-21 10:41 | 41.81606 | 124.47270 | 35865 ft | 380 kts | 225° |
| 2026-04-21 10:41 | 41.77010 | 124.43777 | 35892 ft | 380 kts | 225° |
| 2026-04-21 10:42 | 41.72411 | 124.40298 | 35869 ft | 379 kts | 225° |
| 2026-04-21 10:42 | 41.67822 | 124.36828 | 35887 ft | 378 kts | 225° |
| 2026-04-21 10:43 | 41.63252 | 124.33359 | 35893 ft | 378 kts | 225° |
| 2026-04-21 10:43 | 41.58687 | 124.29893 | 35898 ft | 377 kts | 225° |
| 2026-04-21 10:44 | 41.54116 | 124.26440 | 35905 ft | 377 kts | 225° |
| 2026-04-21 10:44 | 41.49567 | 124.23027 | 35877 ft | 372 kts | 225° |
| 2026-04-21 10:45 | 41.45096 | 124.19680 | 35901 ft | 371 kts | 226° |
| 2026-04-21 10:45 | 41.42747 | 124.18073 | 35911 ft | 384 kts | 219° |
| 2026-04-21 10:45 | 41.40161 | 124.17001 | 35912 ft | 407 kts | 209° |
| 2026-04-21 10:45 | 41.37252 | 124.16593 | 35924 ft | 436 kts | 198° |
| 2026-04-21 10:46 | 41.34170 | 124.16810 | 35872 ft | 445 kts | 194° |
| 2026-04-21 10:46 | 41.27967 | 124.17374 | 35927 ft | 448 kts | 194° |
| 2026-04-21 10:47 | 41.21752 | 124.17936 | 35932 ft | 447 kts | 194° |
| 2026-04-21 10:47 | 41.15540 | 124.18470 | 35930 ft | 447 kts | 194° |
| 2026-04-21 10:48 | 41.09330 | 124.18988 | 35913 ft | 447 kts | 194° |
| 2026-04-21 10:48 | 41.03124 | 124.19514 | 35927 ft | 448 kts | 194° |
| 2026-04-21 10:49 | 40.96891 | 124.20204 | 35940 ft | 451 kts | 193° |
| 2026-04-21 10:49 | 40.90648 | 124.20985 | 35943 ft | 450 kts | 192° |
| 2026-04-21 10:50 | 40.85467 | 124.21621 | 35973 ft | 450 kts | 193° |
| 2026-04-21 10:50 | 40.79247 | 124.22354 | 35981 ft | 448 kts | 193° |
| 2026-04-21 10:51 | 40.71995 | 124.23179 | 35938 ft | 446 kts | 192° |
| 2026-04-21 10:51 | 40.65809 | 124.23887 | 35964 ft | 446 kts | 192° |
| 2026-04-21 10:52 | 40.60669 | 124.24475 | 35983 ft | 446 kts | 192° |
| 2026-04-21 10:52 | 40.54499 | 124.25187 | 35990 ft | 445 kts | 192° |
| 2026-04-21 10:53 | 40.48332 | 124.25896 | 35982 ft | 445 kts | 192° |
| 2026-04-21 10:53 | 40.42171 | 124.26605 | 35995 ft | 444 kts | 192° |
| 2026-04-21 10:54 | 40.36015 | 124.27308 | 36011 ft | 444 kts | 192° |
| 2026-04-21 10:54 | 40.29855 | 124.28008 | 35998 ft | 444 kts | 191° |
| 2026-04-21 10:54 | 40.26801 | 124.28234 | 36007 ft | 432 kts | 197° |
| 2026-04-21 10:55 | 40.23868 | 124.27957 | 36009 ft | 414 kts | 205° |
| 2026-04-21 10:55 | 40.18297 | 124.26549 | 36027 ft | 407 kts | 207° |
| 2026-04-21 10:56 | 40.12736 | 124.25113 | 36010 ft | 408 kts | 207° |
| 2026-04-21 10:56 | 40.07125 | 124.23673 | 36027 ft | 415 kts | 206° |
| 2026-04-21 10:56 | 40.04271 | 124.22939 | 35779 ft | 420 kts | 206° |
| 2026-04-21 10:57 | 40.01402 | 124.22207 | 35536 ft | 422 kts | 206° |
| 2026-04-21 10:57 | 39.98518 | 124.21475 | 35294 ft | 423 kts | 206° |
| 2026-04-21 10:57 | 39.95626 | 124.20742 | 35000 ft | 424 kts | 205° |
| 2026-04-21 10:57 | 39.92724 | 124.20007 | 34759 ft | 425 kts | 205° |
| 2026-04-21 10:58 | 39.89819 | 124.19269 | 34529 ft | 426 kts | 205° |
| 2026-04-21 10:58 | 39.86903 | 124.18530 | 34301 ft | 427 kts | 204° |
| 2026-04-21 10:58 | 39.83982 | 124.17790 | 34061 ft | 428 kts | 204° |
| 2026-04-21 10:58 | 39.81061 | 124.17049 | 33815 ft | 429 kts | 204° |
| 2026-04-21 10:59 | 39.78125 | 124.16304 | 33544 ft | 430 kts | 204° |
| 2026-04-21 10:59 | 39.75181 | 124.15557 | 33283 ft | 432 kts | 204° |
| 2026-04-21 10:59 | 39.72224 | 124.14809 | 33018 ft | 434 kts | 204° |
| 2026-04-21 10:59 | 39.69252 | 124.14057 | 32757 ft | 436 kts | 204° |
| 2026-04-21 11:00 | 39.66271 | 124.13302 | 32494 ft | 438 kts | 204° |
| 2026-04-21 11:00 | 39.63273 | 124.12545 | 32248 ft | 440 kts | 204° |
| 2026-04-21 11:00 | 39.60262 | 124.11789 | 32047 ft | 441 kts | 203° |
| 2026-04-21 11:01 | 39.54227 | 124.10275 | 32087 ft | 442 kts | 203° |
| 2026-04-21 11:01 | 39.48181 | 124.08765 | 32082 ft | 443 kts | 203° |
| 2026-04-21 11:02 | 39.39122 | 124.06485 | 32093 ft | 442 kts | 203° |
| 2026-04-21 11:02 | 39.33089 | 124.04975 | 32099 ft | 442 kts | 203° |
| 2026-04-21 11:03 | 39.27057 | 124.03465 | 32057 ft | 441 kts | 203° |
| 2026-04-21 11:03 | 39.21024 | 124.01961 | 32074 ft | 441 kts | 202° |
| 2026-04-21 11:04 | 39.15038 | 124.00475 | 32087 ft | 441 kts | 202° |
| 2026-04-21 11:04 | 39.09012 | 123.98977 | 32069 ft | 441 kts | 202° |
| 2026-04-21 11:05 | 39.02989 | 123.97480 | 32087 ft | 441 kts | 202° |
| 2026-04-21 11:05 | 38.96965 | 123.95982 | 32106 ft | 441 kts | 202° |
| 2026-04-21 11:06 | 38.90946 | 123.94493 | 32082 ft | 441 kts | 202° |
| 2026-04-21 11:06 | 38.84925 | 123.93008 | 32101 ft | 441 kts | 202° |
| 2026-04-21 11:07 | 38.78902 | 123.91534 | 32105 ft | 440 kts | 202° |
| 2026-04-21 11:07 | 38.72886 | 123.90049 | 32085 ft | 440 kts | 201° |
| 2026-04-21 11:08 | 38.66985 | 123.88234 | 32106 ft | 427 kts | 211° |
| 2026-04-21 11:08 | 38.61491 | 123.85437 | 32122 ft | 425 kts | 211° |
| 2026-04-21 11:09 | 38.55989 | 123.82658 | 32097 ft | 425 kts | 211° |
| 2026-04-21 11:09 | 38.50483 | 123.79893 | 32106 ft | 425 kts | 211° |
| 2026-04-21 11:10 | 38.44971 | 123.77133 | 32121 ft | 426 kts | 211° |
| 2026-04-21 11:10 | 38.39458 | 123.74368 | 32106 ft | 426 kts | 211° |
| 2026-04-21 11:11 | 38.33944 | 123.71601 | 32121 ft | 426 kts | 211° |
| 2026-04-21 11:11 | 38.28428 | 123.68839 | 32138 ft | 426 kts | 211° |
| 2026-04-21 11:12 | 38.22907 | 123.66075 | 32101 ft | 426 kts | 211° |
| 2026-04-21 11:12 | 38.17376 | 123.63314 | 32122 ft | 427 kts | 211° |
| 2026-04-21 11:13 | 38.11845 | 123.60558 | 32138 ft | 427 kts | 211° |
| 2026-04-21 11:13 | 38.06311 | 123.57807 | 32145 ft | 427 kts | 211° |
| 2026-04-21 11:14 | 38.00775 | 123.55065 | 32153 ft | 427 kts | 211° |
| 2026-04-21 11:14 | 37.95237 | 123.52326 | 32155 ft | 427 kts | 211° |
| 2026-04-21 11:15 | 37.89703 | 123.49588 | 32146 ft | 427 kts | 210° |
| 2026-04-21 11:15 | 37.84166 | 123.46851 | 32134 ft | 428 kts | 210° |
| 2026-04-21 11:16 | 37.78620 | 123.44109 | 32149 ft | 428 kts | 210° |
| 2026-04-21 11:16 | 37.73067 | 123.41372 | 32153 ft | 429 kts | 210° |
| 2026-04-21 11:17 | 37.67537 | 123.38659 | 32139 ft | 430 kts | 210° |
| 2026-04-21 11:17 | 37.61956 | 123.35926 | 32158 ft | 431 kts | 210° |
| 2026-04-21 11:18 | 37.56181 | 123.33674 | 32155 ft | 446 kts | 198° |
| 2026-04-21 11:18 | 37.52997 | 123.33412 | 32141 ft | 460 kts | 188° |
| 2026-04-21 11:18 | 37.49790 | 123.33513 | 32152 ft | 462 kts | 188° |
| 2026-04-21 11:19 | 37.43408 | 123.33713 | 32165 ft | 462 kts | 188° |
| 2026-04-21 11:19 | 37.36982 | 123.33896 | 32180 ft | 462 kts | 188° |
| 2026-04-21 11:20 | 37.30555 | 123.34082 | 32154 ft | 462 kts | 188° |
| 2026-04-21 11:20 | 37.24119 | 123.34257 | 32165 ft | 463 kts | 188° |
| 2026-04-21 11:21 | 37.17671 | 123.34438 | 32177 ft | 464 kts | 188° |
| 2026-04-21 11:21 | 37.11213 | 123.34623 | 32175 ft | 466 kts | 188° |
| 2026-04-21 11:22 | 37.04716 | 123.34803 | 32185 ft | 468 kts | 188° |
| 2026-04-21 11:22 | 36.98205 | 123.34985 | 32190 ft | 468 kts | 188° |
| 2026-04-21 11:23 | 36.91695 | 123.35171 | 32179 ft | 468 kts | 188° |
| 2026-04-21 11:23 | 36.85187 | 123.35356 | 32190 ft | 468 kts | 188° |
| 2026-04-21 11:24 | 36.78674 | 123.35544 | 32198 ft | 468 kts | 188° |
| 2026-04-21 11:24 | 36.72160 | 123.35726 | 32162 ft | 468 kts | 188° |
| 2026-04-21 11:25 | 36.65655 | 123.35904 | 32191 ft | 468 kts | 188° |
| 2026-04-21 11:25 | 36.59150 | 123.36084 | 32205 ft | 467 kts | 188° |
| 2026-04-21 11:26 | 36.52654 | 123.36259 | 32213 ft | 467 kts | 188° |
| 2026-04-21 11:26 | 36.46155 | 123.36448 | 32199 ft | 467 kts | 187° |
| 2026-04-21 11:27 | 36.39662 | 123.36635 | 32209 ft | 467 kts | 187° |
| 2026-04-21 11:27 | 36.33163 | 123.36815 | 32213 ft | 467 kts | 187° |
| 2026-04-21 11:28 | 36.26706 | 123.36994 | 32185 ft | 467 kts | 187° |
| 2026-04-21 11:28 | 36.20200 | 123.37177 | 32199 ft | 468 kts | 187° |
| 2026-04-21 11:29 | 36.13684 | 123.37354 | 32210 ft | 468 kts | 187° |
| 2026-04-21 11:29 | 36.07165 | 123.37538 | 32213 ft | 469 kts | 187° |
| 2026-04-21 11:30 | 36.00646 | 123.37734 | 32216 ft | 469 kts | 187° |
| 2026-04-21 11:30 | 35.94124 | 123.37918 | 32225 ft | 469 kts | 187° |
| 2026-04-21 11:31 | 35.87600 | 123.38094 | 32209 ft | 469 kts | 187° |
| 2026-04-21 11:31 | 35.81076 | 123.38275 | 32219 ft | 469 kts | 187° |
| 2026-04-21 11:32 | 35.74551 | 123.38454 | 32223 ft | 469 kts | 187° |
| 2026-04-21 11:32 | 35.68024 | 123.38635 | 32198 ft | 469 kts | 187° |
| 2026-04-21 11:33 | 35.62555 | 123.38791 | 32212 ft | 469 kts | 187° |
| 2026-04-21 11:33 | 35.54977 | 123.39002 | 32229 ft | 469 kts | 187° |
| 2026-04-21 11:34 | 35.49518 | 123.39147 | 32232 ft | 469 kts | 187° |
| 2026-04-21 11:34 | 35.43002 | 123.39334 | 32209 ft | 468 kts | 187° |
| 2026-04-21 11:35 | 35.36490 | 123.39518 | 32229 ft | 468 kts | 187° |
| 2026-04-21 11:35 | 35.28927 | 123.39723 | 32237 ft | 468 kts | 187° |
| 2026-04-21 11:36 | 35.23477 | 123.39868 | 32210 ft | 468 kts | 186° |
| 2026-04-21 11:36 | 35.16968 | 123.40046 | 32217 ft | 468 kts | 186° |
| 2026-04-21 11:37 | 35.10458 | 123.40233 | 32225 ft | 468 kts | 186° |
| 2026-04-21 11:37 | 35.03944 | 123.40408 | 32219 ft | 468 kts | 186° |
| 2026-04-21 11:38 | 34.97424 | 123.40628 | 32213 ft | 470 kts | 185° |
| 2026-04-21 11:38 | 34.90880 | 123.41159 | 32218 ft | 472 kts | 183° |
| 2026-04-21 11:39 | 34.84367 | 123.41818 | 32221 ft | 473 kts | 183° |
| 2026-04-21 11:39 | 34.77765 | 123.42445 | 32208 ft | 472 kts | 183° |
| 2026-04-21 11:40 | 34.71254 | 123.43005 | 32218 ft | 472 kts | 183° |
| 2026-04-21 11:40 | 34.64699 | 123.43549 | 32225 ft | 472 kts | 183° |
| 2026-04-21 11:41 | 34.58141 | 123.44108 | 32200 ft | 472 kts | 183° |
| 2026-04-21 11:41 | 34.51584 | 123.44685 | 32216 ft | 472 kts | 183° |
| 2026-04-21 11:42 | 34.45027 | 123.45266 | 32222 ft | 472 kts | 183° |
| 2026-04-21 11:42 | 34.38473 | 123.45826 | 32224 ft | 472 kts | 183° |
| 2026-04-21 11:43 | 34.31922 | 123.46377 | 32216 ft | 472 kts | 183° |
| 2026-04-21 11:43 | 34.25367 | 123.46939 | 32221 ft | 472 kts | 183° |
| 2026-04-21 11:44 | 34.18819 | 123.47422 | 32219 ft | 467 kts | 189° |
| 2026-04-21 11:44 | 34.15662 | 123.46861 | 32218 ft | 453 kts | 202° |
| 2026-04-21 11:44 | 34.12797 | 123.45431 | 32192 ft | 441 kts | 215° |
| 2026-04-21 11:45 | 34.10356 | 123.43267 | 32195 ft | 433 kts | 228° |
| 2026-04-21 11:45 | 34.08441 | 123.40514 | 32193 ft | 426 kts | 240° |
| 2026-04-21 11:45 | 34.07113 | 123.37340 | 32192 ft | 423 kts | 252° |
| 2026-04-21 11:45 | 34.06342 | 123.33924 | 32195 ft | 422 kts | 257° |
| 2026-04-21 11:46 | 34.04993 | 123.27019 | 32204 ft | 424 kts | 257° |
| 2026-04-21 11:46 | 34.03628 | 123.20104 | 32201 ft | 424 kts | 257° |
| 2026-04-21 11:47 | 34.02249 | 123.13187 | 32210 ft | 424 kts | 257° |
| 2026-04-21 11:47 | 34.00875 | 123.06270 | 32214 ft | 424 kts | 257° |
| 2026-04-21 11:48 | 33.99493 | 122.99353 | 32213 ft | 424 kts | 257° |
| 2026-04-21 11:48 | 33.98115 | 122.92439 | 32214 ft | 424 kts | 257° |
| 2026-04-21 11:49 | 33.96739 | 122.85574 | 32218 ft | 424 kts | 257° |
| 2026-04-21 11:49 | 33.95357 | 122.78667 | 32213 ft | 424 kts | 257° |
| 2026-04-21 11:50 | 33.93965 | 122.71756 | 32187 ft | 425 kts | 257° |
| 2026-04-21 11:50 | 33.92557 | 122.64845 | 32187 ft | 425 kts | 257° |
| 2026-04-21 11:51 | 33.91154 | 122.57923 | 32195 ft | 426 kts | 257° |
| 2026-04-21 11:51 | 33.89744 | 122.50997 | 32197 ft | 426 kts | 257° |
| 2026-04-21 11:52 | 33.88323 | 122.44079 | 32195 ft | 426 kts | 257° |
| 2026-04-21 11:52 | 33.86902 | 122.37159 | 32193 ft | 426 kts | 257° |
| 2026-04-21 11:53 | 33.85484 | 122.30241 | 32202 ft | 426 kts | 257° |
| 2026-04-21 11:53 | 33.84060 | 122.23327 | 32187 ft | 426 kts | 256° |
| 2026-04-21 11:54 | 33.82635 | 122.16414 | 32183 ft | 426 kts | 256° |
| 2026-04-21 11:54 | 33.81203 | 122.09508 | 32188 ft | 426 kts | 256° |
| 2026-04-21 11:55 | 33.79767 | 122.02600 | 32198 ft | 426 kts | 256° |
| 2026-04-21 11:55 | 33.78321 | 121.95702 | 32199 ft | 425 kts | 256° |
| 2026-04-21 11:56 | 33.76387 | 121.88996 | 32194 ft | 428 kts | 242° |
| 2026-04-21 11:56 | 33.74650 | 121.86081 | 32165 ft | 432 kts | 231° |
| 2026-04-21 11:56 | 33.72418 | 121.83640 | 32164 ft | 438 kts | 220° |
| 2026-04-21 11:57 | 33.67009 | 121.80112 | 32163 ft | 445 kts | 212° |
| 2026-04-21 11:57 | 33.61477 | 121.76786 | 32181 ft | 445 kts | 211° |
| 2026-04-21 11:58 | 33.58561 | 121.75468 | 32177 ft | 453 kts | 200° |
| 2026-04-21 11:58 | 33.55423 | 121.74849 | 32156 ft | 462 kts | 189° |
| 2026-04-21 11:58 | 33.52179 | 121.75005 | 32158 ft | 473 kts | 178° |
| 2026-04-21 11:58 | 33.48955 | 121.75967 | 32158 ft | 484 kts | 166° |
| 2026-04-21 11:59 | 33.42728 | 121.79001 | 32157 ft | 487 kts | 164° |
| 2026-04-21 11:59 | 33.36443 | 121.82059 | 32158 ft | 488 kts | 164° |
| 2026-04-21 12:00 | 33.30141 | 121.85112 | 32161 ft | 489 kts | 164° |
| 2026-04-21 12:00 | 33.23824 | 121.88173 | 32154 ft | 490 kts | 164° |
| 2026-04-21 12:01 | 33.17497 | 121.91247 | 32162 ft | 491 kts | 164° |
| 2026-04-21 12:01 | 33.11163 | 121.94321 | 32164 ft | 492 kts | 164° |
| 2026-04-21 12:02 | 33.01645 | 121.98925 | 32150 ft | 492 kts | 163° |
| 2026-04-21 12:03 | 32.95298 | 122.01984 | 32157 ft | 492 kts | 163° |
| 2026-04-21 12:03 | 32.88952 | 122.05039 | 32162 ft | 492 kts | 163° |
| 2026-04-21 12:04 | 32.82600 | 122.08092 | 32157 ft | 492 kts | 163° |
| 2026-04-21 12:04 | 32.76249 | 122.11140 | 32138 ft | 492 kts | 163° |
| 2026-04-21 12:05 | 32.69901 | 122.14185 | 32147 ft | 492 kts | 163° |
| 2026-04-21 12:05 | 32.63542 | 122.17223 | 32148 ft | 492 kts | 163° |
| 2026-04-21 12:06 | 32.57183 | 122.20252 | 32161 ft | 493 kts | 163° |
| 2026-04-21 12:06 | 32.50859 | 122.23261 | 32163 ft | 493 kts | 163° |
| 2026-04-21 12:07 | 32.44494 | 122.26300 | 32149 ft | 493 kts | 163° |
| 2026-04-21 12:07 | 32.38127 | 122.29335 | 32159 ft | 493 kts | 163° |
| 2026-04-21 12:08 | 32.31758 | 122.32357 | 32156 ft | 493 kts | 163° |
| 2026-04-21 12:08 | 32.25391 | 122.35369 | 32160 ft | 493 kts | 163° |
| 2026-04-21 12:09 | 32.19027 | 122.38391 | 32147 ft | 493 kts | 163° |
| 2026-04-21 12:09 | 32.12667 | 122.41413 | 32156 ft | 493 kts | 163° |
| 2026-04-21 12:10 | 32.06307 | 122.44416 | 32157 ft | 492 kts | 163° |
| 2026-04-21 12:10 | 31.99943 | 122.47404 | 32156 ft | 492 kts | 163° |
| 2026-04-21 12:11 | 31.93587 | 122.50393 | 32157 ft | 492 kts | 163° |
| 2026-04-21 12:11 | 31.87230 | 122.53385 | 32156 ft | 492 kts | 163° |
| 2026-04-21 12:12 | 31.80875 | 122.56374 | 32157 ft | 492 kts | 163° |
| 2026-04-21 12:12 | 31.74549 | 122.59300 | 32156 ft | 490 kts | 167° |
| 2026-04-21 12:12 | 31.71274 | 122.60230 | 32153 ft | 481 kts | 178° |
| 2026-04-21 12:13 | 31.67969 | 122.60432 | 32139 ft | 472 kts | 188° |
| 2026-04-21 12:13 | 31.61704 | 122.58798 | 32144 ft | 456 kts | 208° |
| 2026-04-21 12:14 | 31.56393 | 122.54939 | 32148 ft | 448 kts | 221° |
| 2026-04-21 12:14 | 31.51396 | 122.50568 | 32147 ft | 448 kts | 220° |
| 2026-04-21 12:15 | 31.46370 | 122.46233 | 32130 ft | 450 kts | 218° |
| 2026-04-21 12:15 | 31.40660 | 122.43062 | 32139 ft | 458 kts | 205° |
| 2026-04-21 12:16 | 31.34699 | 122.40413 | 32140 ft | 458 kts | 206° |
| 2026-04-21 12:16 | 31.28729 | 122.37753 | 31605 ft | 459 kts | 206° |
| 2026-04-21 12:16 | 31.25791 | 122.36448 | 31417 ft | 443 kts | 206° |
| 2026-04-21 12:17 | 31.22958 | 122.35196 | 31321 ft | 427 kts | 206° |
| 2026-04-21 12:17 | 31.20225 | 122.33991 | 31237 ft | 416 kts | 206° |
| 2026-04-21 12:17 | 31.17500 | 122.32781 | 31149 ft | 421 kts | 206° |
| 2026-04-21 12:18 | 31.12004 | 122.30324 | 30974 ft | 424 kts | 206° |
| 2026-04-21 12:18 | 31.06487 | 122.27872 | 30773 ft | 424 kts | 206° |
| 2026-04-21 12:19 | 31.00961 | 122.25436 | 30597 ft | 425 kts | 206° |
| 2026-04-21 12:19 | 30.95325 | 122.23250 | 30423 ft | 428 kts | 202° |
| 2026-04-21 12:20 | 30.90540 | 122.21709 | 30278 ft | 430 kts | 200° |
| 2026-04-21 12:20 | 30.86672 | 122.20503 | 30150 ft | 430 kts | 202° |
| 2026-04-21 12:20 | 30.83893 | 122.19302 | 30051 ft | 424 kts | 210° |
| 2026-04-21 12:21 | 30.79120 | 122.15556 | 29847 ft | 414 kts | 227° |
| 2026-04-21 12:21 | 30.77179 | 122.13113 | 29746 ft | 410 kts | 235° |
| 2026-04-21 12:21 | 30.76055 | 122.11298 | 29683 ft | 409 kts | 239° |
| 2026-04-21 12:22 | 30.72960 | 122.05747 | 29490 ft | 410 kts | 239° |
| 2026-04-21 12:22 | 30.71371 | 122.02922 | 29101 ft | 426 kts | 239° |
| 2026-04-21 12:22 | 30.69198 | 121.99061 | 28449 ft | 435 kts | 239° |
| 2026-04-21 12:22 | 30.68074 | 121.97064 | 28132 ft | 438 kts | 239° |
| 2026-04-21 12:23 | 30.66401 | 121.94091 | 27674 ft | 441 kts | 239° |
| 2026-04-21 12:23 | 30.64717 | 121.91101 | 27226 ft | 443 kts | 239° |
| 2026-04-21 12:23 | 30.63027 | 121.88102 | 26785 ft | 445 kts | 239° |
| 2026-04-21 12:23 | 30.61331 | 121.85094 | 26342 ft | 446 kts | 239° |
| 2026-04-21 12:24 | 30.59631 | 121.82079 | 25926 ft | 447 kts | 238° |
| 2026-04-21 12:24 | 30.57945 | 121.79093 | 25514 ft | 448 kts | 239° |
| 2026-04-21 12:24 | 30.56236 | 121.76069 | 25094 ft | 449 kts | 239° |
| 2026-04-21 12:24 | 30.54522 | 121.73035 | 24678 ft | 450 kts | 239° |
| 2026-04-21 12:25 | 30.52805 | 121.69993 | 24257 ft | 451 kts | 238° |
| 2026-04-21 12:25 | 30.51085 | 121.66953 | 23860 ft | 450 kts | 238° |
| 2026-04-21 12:25 | 30.49370 | 121.63929 | 23440 ft | 448 kts | 238° |
| 2026-04-21 12:25 | 30.47663 | 121.60923 | 22969 ft | 445 kts | 238° |
| 2026-04-21 12:26 | 30.45968 | 121.57938 | 22499 ft | 442 kts | 238° |
| 2026-04-21 12:26 | 30.44283 | 121.54976 | 22029 ft | 439 kts | 238° |
| 2026-04-21 12:26 | 30.42608 | 121.52033 | 21536 ft | 436 kts | 238° |
| 2026-04-21 12:26 | 30.40943 | 121.49109 | 21044 ft | 433 kts | 238° |
| 2026-04-21 12:27 | 30.39294 | 121.46212 | 20565 ft | 430 kts | 238° |
| 2026-04-21 12:27 | 30.37652 | 121.43332 | 20089 ft | 426 kts | 238° |
| 2026-04-21 12:27 | 30.36026 | 121.40482 | 19592 ft | 423 kts | 238° |
| 2026-04-21 12:27 | 30.34409 | 121.37648 | 19143 ft | 420 kts | 238° |
| 2026-04-21 12:28 | 30.32803 | 121.34835 | 18684 ft | 417 kts | 238° |
| 2026-04-21 12:28 | 30.31209 | 121.32044 | 18228 ft | 414 kts | 238° |
| 2026-04-21 12:28 | 30.29623 | 121.29272 | 17691 ft | 412 kts | 238° |
| 2026-04-21 12:28 | 30.28049 | 121.26519 | 17197 ft | 409 kts | 238° |
| 2026-04-21 12:29 | 30.26486 | 121.23781 | 16694 ft | 406 kts | 238° |
| 2026-04-21 12:29 | 30.24928 | 121.21083 | 16198 ft | 400 kts | 237° |
| 2026-04-21 12:29 | 30.23341 | 121.18483 | 15703 ft | 391 kts | 236° |
| 2026-04-21 12:29 | 30.21737 | 121.15977 | 15225 ft | 384 kts | 235° |
| 2026-04-21 12:30 | 30.20139 | 121.13536 | 14749 ft | 377 kts | 234° |
| 2026-04-21 12:30 | 30.18566 | 121.11140 | 14285 ft | 371 kts | 235° |
| 2026-04-21 12:30 | 30.17025 | 121.08774 | 13828 ft | 366 kts | 235° |
| 2026-04-21 12:30 | 30.15512 | 121.06433 | 13317 ft | 361 kts | 236° |
| 2026-04-21 12:31 | 30.14024 | 121.04120 | 12802 ft | 356 kts | 236° |
| 2026-04-21 12:31 | 30.12559 | 121.01832 | 12304 ft | 352 kts | 236° |
| 2026-04-21 12:31 | 30.11113 | 120.99573 | 11814 ft | 348 kts | 236° |
| 2026-04-21 12:31 | 30.09686 | 120.97345 | 11332 ft | 343 kts | 236° |
| 2026-04-21 12:32 | 30.08277 | 120.95144 | 10847 ft | 338 kts | 236° |
| 2026-04-21 12:32 | 30.06890 | 120.92976 | 10378 ft | 334 kts | 236° |
| 2026-04-21 12:32 | 30.05519 | 120.90833 | 9914 ft | 329 kts | 236° |
| 2026-04-21 12:32 | 30.04170 | 120.88716 | 9402 ft | 325 kts | 237° |
| 2026-04-21 12:33 | 30.03235 | 120.86391 | 8917 ft | 319 kts | 257° |
| 2026-04-21 12:33 | 30.03147 | 120.83860 | 8405 ft | 317 kts | 277° |
| 2026-04-21 12:33 | 30.03829 | 120.81455 | 7997 ft | 311 kts | 289° |
| 2026-04-21 12:33 | 30.04631 | 120.79222 | 7852 ft | 292 kts | 289° |
| 2026-04-21 12:34 | 30.05387 | 120.77126 | 7702 ft | 274 kts | 288° |
| 2026-04-21 12:34 | 30.06099 | 120.75139 | 7573 ft | 262 kts | 288° |
| 2026-04-21 12:34 | 30.06777 | 120.73229 | 7446 ft | 251 kts | 287° |
| 2026-04-21 12:34 | 30.07423 | 120.71399 | 7325 ft | 243 kts | 287° |
| 2026-04-21 12:35 | 30.08057 | 120.69601 | 7204 ft | 241 kts | 287° |
| 2026-04-21 12:35 | 30.08686 | 120.67816 | 7082 ft | 240 kts | 287° |
| 2026-04-21 12:35 | 30.09313 | 120.66036 | 6969 ft | 239 kts | 287° |
| 2026-04-21 12:35 | 30.09937 | 120.64261 | 6827 ft | 238 kts | 286° |
| 2026-04-21 12:36 | 30.10561 | 120.62485 | 6680 ft | 239 kts | 286° |
| 2026-04-21 12:36 | 30.11187 | 120.60706 | 6542 ft | 239 kts | 286° |
| 2026-04-21 12:36 | 30.11811 | 120.58937 | 6401 ft | 237 kts | 286° |
| 2026-04-21 12:36 | 30.12432 | 120.57174 | 6254 ft | 237 kts | 285° |
| 2026-04-21 12:37 | 30.13054 | 120.55409 | 6099 ft | 238 kts | 285° |
| 2026-04-21 12:37 | 30.13668 | 120.53662 | 5979 ft | 238 kts | 285° |
| 2026-04-21 12:37 | 30.14289 | 120.51893 | 5903 ft | 237 kts | 285° |
| 2026-04-21 12:37 | 30.14913 | 120.50121 | 5902 ft | 238 kts | 285° |
| 2026-04-21 12:38 | 30.15506 | 120.48339 | 5902 ft | 236 kts | 278° |
| 2026-04-21 12:38 | 30.15690 | 120.46503 | 5902 ft | 224 kts | 261° |
| 2026-04-21 12:38 | 30.15397 | 120.44792 | 5892 ft | 215 kts | 246° |
| 2026-04-21 12:38 | 30.14757 | 120.43252 | 5790 ft | 211 kts | 240° |
| 2026-04-21 12:39 | 30.14092 | 120.41767 | 5686 ft | 206 kts | 240° |
| 2026-04-21 12:39 | 30.13437 | 120.40298 | 5590 ft | 205 kts | 240° |
| 2026-04-21 12:39 | 30.12784 | 120.38828 | 5500 ft | 206 kts | 240° |
| 2026-04-21 12:39 | 30.12130 | 120.37348 | 5401 ft | 207 kts | 240° |
| 2026-04-21 12:40 | 30.11478 | 120.35872 | 5300 ft | 206 kts | 239° |
| 2026-04-21 12:40 | 30.10823 | 120.34402 | 5201 ft | 206 kts | 238° |
| 2026-04-21 12:40 | 30.10162 | 120.32930 | 5101 ft | 207 kts | 238° |
| 2026-04-21 12:40 | 30.09507 | 120.31460 | 5009 ft | 205 kts | 239° |
| 2026-04-21 12:41 | 30.08859 | 120.30001 | 4902 ft | 203 kts | 239° |
| 2026-04-21 12:41 | 30.08220 | 120.28568 | 4818 ft | 200 kts | 239° |
| 2026-04-21 12:41 | 30.07586 | 120.27145 | 4710 ft | 199 kts | 238° |
| 2026-04-21 12:41 | 30.06954 | 120.25725 | 4583 ft | 199 kts | 238° |
| 2026-04-21 12:42 | 30.06326 | 120.24318 | 4452 ft | 194 kts | 238° |
| 2026-04-21 12:42 | 30.05716 | 120.22949 | 4325 ft | 191 kts | 238° |
| 2026-04-21 12:42 | 30.05167 | 120.21556 | 4195 ft | 194 kts | 250° |
| 2026-04-21 12:42 | 30.05186 | 120.19966 | 4069 ft | 208 kts | 279° |
| 2026-04-21 12:43 | 30.05993 | 120.18522 | 3943 ft | 226 kts | 314° |
| 2026-04-21 12:43 | 30.07385 | 120.17591 | 3827 ft | 235 kts | 327° |
| 2026-04-21 12:43 | 30.08844 | 120.16738 | 3707 ft | 236 kts | 327° |
| 2026-04-21 12:43 | 30.10327 | 120.15921 | 3572 ft | 239 kts | 338° |
| 2026-04-21 12:44 | 30.11974 | 120.15908 | 3444 ft | 242 kts | 22° |
| 2026-04-21 12:44 | 30.13244 | 120.17065 | 3323 ft | 231 kts | 63° |
| 2026-04-21 12:44 | 30.14003 | 120.18682 | 3212 ft | 228 kts | 72° |
| 2026-04-21 12:44 | 30.14709 | 120.20341 | 3103 ft | 232 kts | 71° |
| 2026-04-21 12:45 | 30.15430 | 120.21975 | 2992 ft | 224 kts | 69° |
| 2026-04-21 12:45 | 30.16126 | 120.23529 | 3011 ft | 212 kts | 70° |
| 2026-04-21 12:45 | 30.16796 | 120.25033 | 2949 ft | 208 kts | 70° |
| 2026-04-21 12:45 | 30.17450 | 120.26502 | 2736 ft | 203 kts | 70° |
| 2026-04-21 12:46 | 30.18087 | 120.27931 | 2476 ft | 196 kts | 70° |
| 2026-04-21 12:46 | 30.18691 | 120.29285 | 2229 ft | 184 kts | 69° |
| 2026-04-21 12:46 | 30.19256 | 120.30555 | 1995 ft | 172 kts | 70° |
| 2026-04-21 12:46 | 30.19777 | 120.31722 | 1785 ft | 156 kts | 70° |
| 2026-04-21 12:47 | 30.20255 | 120.32799 | 1574 ft | 146 kts | 69° |
| 2026-04-21 12:47 | 30.20713 | 120.33831 | 1375 ft | 143 kts | 69° |
| 2026-04-21 12:47 | 30.21162 | 120.34843 | 1191 ft | 141 kts | 67° |
| 2026-04-21 12:47 | 30.21609 | 120.35851 | 1003 ft | 140 kts | 66° |
| 2026-04-21 12:48 | 30.22052 | 120.36850 | 814 ft | 139 kts | 66° |
| 2026-04-21 12:48 | 30.22492 | 120.37840 | 631 ft | 138 kts | 67° |
| 2026-04-21 12:48 | 30.22929 | 120.38814 | 460 ft | 135 kts | 68° |
| 2026-04-21 12:48 | 30.23351 | 120.39782 | 276 ft | 136 kts | 65° |
| 2026-04-21 12:49 | 30.23788 | 120.40741 | 97 ft | 137 kts | 65° |
| 2026-04-21 12:49 | 30.24195 | 120.41676 | 32 ft | 115 kts | 63° |
| 2026-04-21 12:49 | 30.24476 | 120.42311 | 31 ft | 64 kts | 63° |
| 2026-04-21 12:49 | 30.24553 | 120.42561 | 29 ft | 27 kts | 83° |
| 2026-04-21 12:50 | 30.24557 | 120.42720 | 31 ft | 13 kts | 90° |
| 2026-04-21 12:50 | 30.24518 | 120.42778 | 32 ft | 10 kts | 176° |
| 2026-04-21 12:50 | 30.24461 | 120.42752 | 32 ft | 8 kts | 205° |
| 2026-04-21 12:50 | 30.24417 | 120.42765 | 32 ft | 6 kts | 152° |
| 2026-04-21 12:51 | 30.24377 | 120.42786 | 32 ft | 9 kts | 156° |
| 2026-04-21 12:51 | 30.24312 | 120.42796 | 32 ft | 9 kts | 192° |
| 2026-04-21 12:51 | 30.24254 | 120.42805 | 32 ft | 10 kts | 153° |
| 2026-04-21 12:51 | 30.24173 | 120.42853 | 31 ft | 13 kts | 153° |
| 2026-04-21 12:52 | 30.24116 | 120.42869 | 32 ft | 6 kts | 212° |
| 2026-04-21 12:52 | 30.24097 | 120.42836 | 32 ft | 2 kts | 242° |
| 2026-04-21 12:52 | 30.24093 | 120.42828 | 32 ft | 0 kts | 242° |